createdAt,value
2022-09-07T00:01:01.467Z,56.49
2022-09-07T00:03:29.361Z,56.64
2022-09-07T00:05:57.283Z,56.64
2022-09-07T00:08:27.965Z,56.67
2022-09-07T00:10:57.889Z,56.86
2022-09-07T00:13:27.705Z,57.01
2022-09-07T00:15:55.537Z,56.51
2022-09-07T00:18:25.004Z,57.55
2022-09-07T00:20:59.451Z,56.90
2022-09-07T00:23:28.780Z,56.84
2022-09-07T00:26:00.673Z,57.17
2022-09-07T00:28:28.412Z,57.18
2022-09-07T00:30:56.450Z,58.10
2022-09-07T00:33:26.027Z,59.67
2022-09-07T00:35:53.787Z,60.09
2022-09-07T00:38:21.676Z,58.63
2022-09-07T00:40:49.611Z,58.76
2022-09-07T00:43:19.325Z,59.63
2022-09-07T00:45:47.029Z,61.05
2022-09-07T00:48:20.121Z,61.97
2022-09-07T00:50:53.702Z,61.45
2022-09-07T00:53:26.895Z,61.17
2022-09-07T00:55:55.556Z,61.91
2022-09-07T00:58:24.697Z,62.39
2022-09-07T01:00:53.049Z,62.88
2022-09-07T01:03:25.296Z,62.94
2022-09-07T01:05:59.964Z,63.60
2022-09-07T01:08:28.080Z,63.92
2022-09-07T01:10:56.537Z,64.24
2022-09-07T01:13:24.250Z,64.19
2022-09-07T01:16:00.457Z,64.14
2022-09-07T01:18:38.767Z,64.56
2022-09-07T01:21:27.340Z,65.32
2022-09-07T01:24:29.464Z,66.44
2022-09-07T01:27:48.891Z,67.06
2022-09-07T01:30:20.426Z,67.12
2022-09-07T01:33:12.290Z,65.84
2022-09-07T01:35:46.441Z,66.91
2022-09-07T01:38:22.506Z,68.85
2022-09-07T01:40:57.871Z,68.69
2022-09-07T01:43:36.457Z,69.25
2022-09-07T01:46:12.117Z,69.03
2022-09-07T01:48:44.191Z,68.48
2022-09-07T01:51:14.130Z,68.32
2022-09-07T01:53:47.917Z,68.63
2022-09-07T01:56:25.814Z,68.85
2022-09-07T01:58:57.629Z,69.22
2022-09-07T02:01:32.965Z,68.50
2022-09-07T02:04:06.077Z,68.83
2022-09-07T02:06:40.496Z,70.03
2022-09-07T02:09:15.440Z,70.46
2022-09-07T02:11:45.958Z,71.20
2022-09-07T02:14:19.847Z,70.47
2022-09-07T02:16:56.519Z,70.79
2022-09-07T02:19:28.650Z,71.05
2022-09-07T02:22:01.712Z,70.60
2022-09-07T02:24:35.213Z,71.86
2022-09-07T02:27:08.782Z,71.54
2022-09-07T02:29:36.630Z,71.82
2022-09-07T02:32:06.302Z,70.65
2022-09-07T02:34:34.343Z,70.42
2022-09-07T02:37:05.312Z,71.28
2022-09-07T02:39:33.724Z,71.75
2022-09-07T02:42:01.571Z,70.85
2022-09-07T02:44:34.728Z,71.74
2022-09-07T02:47:14.606Z,71.88
2022-09-07T02:50:10.868Z,72.15
2022-09-07T02:52:47.446Z,72.63
2022-09-07T02:55:28.120Z,74.26
2022-09-07T02:58:04.378Z,73.23
2022-09-07T03:00:38.899Z,73.66
2022-09-07T03:03:19.431Z,76.48
2022-09-07T03:05:53.442Z,75.67
2022-09-07T03:08:26.212Z,76.84
2022-09-07T03:10:54.753Z,77.12
2022-09-07T03:13:24.295Z,77.51
2022-09-07T03:15:55.718Z,77.65
2022-09-07T03:18:26.048Z,76.68
2022-09-07T03:20:54.478Z,78.70
2022-09-07T03:23:22.398Z,77.52
2022-09-07T03:25:50.400Z,78.20
2022-09-07T03:28:18.500Z,77.88
2022-09-07T03:30:47.377Z,78.36
2022-09-07T03:33:16.169Z,78.75
2022-09-07T03:35:45.940Z,79.23
2022-09-07T03:38:13.874Z,79.23
2022-09-07T03:40:41.674Z,81.04
2022-09-07T03:43:09.382Z,81.13
2022-09-07T03:45:37.220Z,80.94
2022-09-07T03:48:05.149Z,81.14
2022-09-07T03:50:32.927Z,80.74
2022-09-07T03:53:02.055Z,81.33
2022-09-07T03:55:29.847Z,81.49
2022-09-07T03:57:58.027Z,81.45
2022-09-07T04:00:26.171Z,81.60
2022-09-07T04:02:54.002Z,81.75
2022-09-07T04:05:21.739Z,80.77
2022-09-07T04:07:49.697Z,81.93
2022-09-07T04:10:18.950Z,82.85
2022-09-07T04:12:46.653Z,83.85
2022-09-07T04:15:14.438Z,82.19
2022-09-07T04:17:42.197Z,83.53
2022-09-07T04:20:10.862Z,81.95
2022-09-07T04:22:38.619Z,82.36
2022-09-07T04:25:06.588Z,81.86
2022-09-07T04:27:35.670Z,83.14
2022-09-07T04:30:03.479Z,83.48
2022-09-07T04:32:31.383Z,83.35
2022-09-07T04:34:59.133Z,83.73
2022-09-07T04:37:26.884Z,86.51
2022-09-07T04:39:54.723Z,84.19
2022-09-07T04:42:22.897Z,84.58
2022-09-07T04:44:52.019Z,83.89
2022-09-07T04:47:19.951Z,87.72
2022-09-07T04:49:51.456Z,85.36
2022-09-07T04:52:19.365Z,86.05
2022-09-07T04:54:50.812Z,84.80
2022-09-07T04:57:21.725Z,87.08
2022-09-07T04:59:49.600Z,85.36
2022-09-07T05:02:18.738Z,84.53
2022-09-07T05:04:46.621Z,84.86
2022-09-07T05:07:14.367Z,84.41
2022-09-07T05:09:42.120Z,83.13
2022-09-07T05:12:10.243Z,84.64
2022-09-07T05:14:39.103Z,84.75
2022-09-07T05:17:07.788Z,84.83
2022-09-07T05:19:36.919Z,85.76
2022-09-07T05:22:04.652Z,84.43
2022-09-07T05:24:36.051Z,84.94
2022-09-07T05:27:03.990Z,83.54
2022-09-07T05:32:20.077Z,81.94
2022-09-07T05:34:52.306Z,82.58
2022-09-07T05:37:20.725Z,81.44
2022-09-07T05:39:48.499Z,80.24
2022-09-07T05:42:16.307Z,81.36
2022-09-07T05:44:44.901Z,82.20
2022-09-07T05:47:13.692Z,81.06
2022-09-07T05:49:41.647Z,82.00
2022-09-07T05:52:11.143Z,79.17
2022-09-07T05:54:39.008Z,80.02
2022-09-07T05:57:07.279Z,79.67
2022-09-07T05:59:35.283Z,79.23
2022-09-07T06:02:03.207Z,78.65
2022-09-07T06:04:31.062Z,78.56
2022-09-07T06:07:20.505Z,78.03
2022-09-07T06:12:36.131Z,79.00
2022-09-07T06:15:05.325Z,77.99
2022-09-07T06:17:33.165Z,77.71
2022-09-07T06:20:00.875Z,77.99
2022-09-07T06:22:30.914Z,79.29
2022-09-07T06:25:00.476Z,78.34
2022-09-07T06:27:28.301Z,79.06
2022-09-07T06:29:56.060Z,78.35
2022-09-07T06:35:12.443Z,79.64
2022-09-07T06:37:40.310Z,78.46
2022-09-07T06:40:11.486Z,77.10
2022-09-07T06:42:39.578Z,78.08
2022-09-07T06:45:07.822Z,76.41
2022-09-07T06:47:35.833Z,78.30
2022-09-07T06:50:03.720Z,77.28
2022-09-07T06:55:20.648Z,78.89
2022-09-07T06:57:48.397Z,79.29
2022-09-07T07:00:16.826Z,77.23
2022-09-07T07:02:44.588Z,75.73
2022-09-07T07:05:12.414Z,76.16
2022-09-07T07:07:40.183Z,78.03
2022-09-07T07:10:08.796Z,76.98
2022-09-07T07:15:04.885Z,75.73
2022-09-07T07:17:32.615Z,78.70
2022-09-07T07:20:00.386Z,79.90
2022-09-07T07:22:46.577Z,80.30
2022-09-07T07:25:15.222Z,80.22
2022-09-07T07:27:45.910Z,79.60
2022-09-07T07:30:14.027Z,78.63
2022-09-07T07:32:42.207Z,79.15
2022-09-07T07:35:10.796Z,81.04
2022-09-07T07:37:39.343Z,78.37
2022-09-07T07:40:18.660Z,79.83
2022-09-07T07:42:50.486Z,78.59
2022-09-07T07:48:06.576Z,74.31
2022-09-07T07:50:34.620Z,74.49
2022-09-07T07:55:50.603Z,76.97
2022-09-07T07:58:20.131Z,77.61
2022-09-07T08:00:54.652Z,76.58
2022-09-07T08:03:23.594Z,77.01
2022-09-07T08:05:51.606Z,77.64
2022-09-07T08:08:19.686Z,74.70
2022-09-07T08:10:47.721Z,74.99
2022-09-07T08:13:15.795Z,75.62
2022-09-07T08:15:46.296Z,78.20
2022-09-07T08:18:15.696Z,75.00
2022-09-07T08:20:43.895Z,73.95
2022-09-07T08:23:11.577Z,74.60
2022-09-07T08:25:39.327Z,73.78
2022-09-07T08:28:07.014Z,72.61
2022-09-07T08:30:35.105Z,71.59
2022-09-07T08:33:04.154Z,72.13
2022-09-07T08:35:31.855Z,70.87
2022-09-07T08:37:59.587Z,74.09
2022-09-07T08:40:27.224Z,73.70
2022-09-07T08:43:05.934Z,74.29
2022-09-07T08:45:38.010Z,71.86
2022-09-07T08:48:07.231Z,70.41
2022-09-07T08:50:43.653Z,70.52
2022-09-07T08:53:15.415Z,72.14
2022-09-07T08:55:50.657Z,73.92
2022-09-07T08:58:47.811Z,70.88
2022-09-07T09:04:19.344Z,70.93
2022-09-07T09:07:04.116Z,71.92
2022-09-07T09:09:46.794Z,72.96
2022-09-07T09:12:24.974Z,71.43
2022-09-07T09:15:10.785Z,73.97
2022-09-07T09:17:45.632Z,69.19
2022-09-07T09:20:24.918Z,72.34
2022-09-07T09:22:55.498Z,70.45
2022-09-07T09:25:27.746Z,68.62
2022-09-07T09:27:55.385Z,67.32
2022-09-07T09:30:25.489Z,67.27
2022-09-07T09:33:12.530Z,68.75
2022-09-07T09:35:42.388Z,69.92
2022-09-07T09:38:30.282Z,68.91
2022-09-07T09:41:01.133Z,66.33
2022-09-07T09:43:36.369Z,68.71
2022-09-07T09:46:19.544Z,67.82
2022-09-07T09:48:55.659Z,68.15
2022-09-07T09:54:24.500Z,68.20
2022-09-07T09:56:53.402Z,66.70
2022-09-07T10:05:28.054Z,66.25
2022-09-07T10:07:57.835Z,65.77
2022-09-07T10:10:27.365Z,63.16
2022-09-07T10:12:56.385Z,61.74
2022-09-07T10:15:32.857Z,61.04
2022-09-07T10:18:05.951Z,60.99
2022-09-07T10:20:36.475Z,62.98
2022-09-07T10:23:07.122Z,60.40
2022-09-07T10:25:37.352Z,60.18
2022-09-07T10:28:17.952Z,62.26
2022-09-07T10:30:59.718Z,61.78
2022-09-07T10:33:41.650Z,60.94
2022-09-07T10:36:16.989Z,59.37
2022-09-07T10:38:50.928Z,59.79
2022-09-07T10:41:24.636Z,62.66
2022-09-07T10:43:53.191Z,61.37
2022-09-07T10:47:00.406Z,59.73
2022-09-07T10:49:38.404Z,58.67
2022-09-07T10:52:23.830Z,58.41
2022-09-07T10:54:57.227Z,56.68
2022-09-07T10:57:34.325Z,57.47
2022-09-07T11:00:09.753Z,58.24
2022-09-07T11:06:04.988Z,60.04
2022-09-07T11:14:29.409Z,57.14
2022-09-07T11:17:01.084Z,58.82
2022-09-07T11:19:35.914Z,58.90
2022-09-07T11:22:16.888Z,58.75
2022-09-07T11:27:45.632Z,57.72
2022-09-07T11:30:20.779Z,56.12
2022-09-07T11:32:56.382Z,58.49
2022-09-07T11:35:32.565Z,58.56
2022-09-07T11:38:10.736Z,57.39
2022-09-07T11:40:44.635Z,59.23
2022-09-07T11:43:22.659Z,59.03
2022-09-07T11:45:55.098Z,60.18
2022-09-07T11:48:32.035Z,61.51
2022-09-07T11:51:03.444Z,61.76
2022-09-07T11:53:36.553Z,61.71
2022-09-07T11:56:11.775Z,61.31
2022-09-07T11:58:56.132Z,60.00
2022-09-07T12:01:35.121Z,60.01
2022-09-07T12:04:29.463Z,58.08
2022-09-07T12:07:20.001Z,60.11
2022-09-07T12:10:07.576Z,60.62
2022-09-07T12:12:56.622Z,60.80
2022-09-07T12:15:36.633Z,59.71
2022-09-07T12:18:18.431Z,60.33
2022-09-07T12:20:47.971Z,60.57
2022-09-07T12:23:28.779Z,59.39
2022-09-07T12:26:39.329Z,58.17
2022-09-07T12:29:21.175Z,56.67
2022-09-07T12:32:07.764Z,58.20
2022-09-07T12:34:51.365Z,57.85
2022-09-07T12:37:44.389Z,58.75
2022-09-07T12:40:57.753Z,58.70
2022-09-07T12:44:02.107Z,58.52
2022-09-07T12:46:46.662Z,61.97
2022-09-07T12:49:39.066Z,61.51
2022-09-07T12:52:33.037Z,62.38
2022-09-07T12:55:28.006Z,62.98
2022-09-07T12:58:15.002Z,63.40
2022-09-07T13:00:59.638Z,62.70
2022-09-07T13:04:10.486Z,63.13
2022-09-07T13:07:03.095Z,62.69
2022-09-07T13:09:37.591Z,63.94
2022-09-07T13:15:45.236Z,62.52
2022-09-07T13:18:40.211Z,63.32
2022-09-07T13:21:35.840Z,63.12
2022-09-07T13:24:46.491Z,62.38
2022-09-07T13:27:46.753Z,61.88
2022-09-07T13:30:46.288Z,59.49
2022-09-07T13:33:50.594Z,58.39
2022-09-07T13:36:38.410Z,56.37
2022-09-07T13:39:12.656Z,58.54
2022-09-07T13:41:46.555Z,60.55
2022-09-07T13:44:25.809Z,62.11
2022-09-07T13:47:02.648Z,61.30
2022-09-07T13:49:55.897Z,59.66
2022-09-07T13:52:38.453Z,61.04
2022-09-07T13:55:26.001Z,62.65
2022-09-07T13:58:12.029Z,63.90
2022-09-07T14:00:52.346Z,64.40
2022-09-07T14:03:21.643Z,66.15
2022-09-07T14:05:49.300Z,65.50
2022-09-07T14:08:30.011Z,63.95
2022-09-07T14:10:57.741Z,62.80
2022-09-07T14:13:25.593Z,63.86
2022-09-07T14:15:53.365Z,65.17
2022-09-07T14:18:31.691Z,65.26
2022-09-07T14:20:59.523Z,63.81
2022-09-07T14:23:31.603Z,63.41
2022-09-07T14:26:16.552Z,64.90
2022-09-07T14:28:46.419Z,65.51
2022-09-07T14:31:17.397Z,67.04
2022-09-07T14:33:50.985Z,65.76
2022-09-07T14:36:41.647Z,67.03
2022-09-07T14:39:10.209Z,63.94
2022-09-07T14:41:39.893Z,63.35
2022-09-07T14:44:07.632Z,63.32
2022-09-07T14:46:35.835Z,61.55
2022-09-07T14:49:07.820Z,61.65
2022-09-07T14:51:37.017Z,60.62
2022-09-07T14:54:07.407Z,62.83
2022-09-07T14:56:39.153Z,63.19
2022-09-07T14:59:29.372Z,63.57
2022-09-07T15:02:24.477Z,62.68
2022-09-07T15:05:25.475Z,62.50
2022-09-07T15:07:58.576Z,61.83
2022-09-07T15:10:32.585Z,60.82
2022-09-07T15:13:02.865Z,59.77
2022-09-07T15:15:32.941Z,59.49
2022-09-07T15:18:07.792Z,58.18
2022-09-07T15:20:41.595Z,59.80
2022-09-07T15:23:12.226Z,62.08
2022-09-07T15:25:43.284Z,61.58
2022-09-07T15:34:02.033Z,59.56
2022-09-07T15:36:31.948Z,59.50
2022-09-07T15:39:00.941Z,60.81
2022-09-07T15:41:29.528Z,62.39
2022-09-07T15:43:59.142Z,63.69
2022-09-07T15:46:27.203Z,65.38
2022-09-07T15:48:56.886Z,64.43
2022-09-07T15:54:14.500Z,64.52
2022-09-07T15:56:44.448Z,64.20
2022-09-07T15:59:35.403Z,62.39
2022-09-07T16:02:03.450Z,61.90
2022-09-07T16:04:31.840Z,61.82
2022-09-07T16:07:01.641Z,64.59
2022-09-07T16:09:29.629Z,65.48
2022-09-07T16:13:00.139Z,64.97
2022-09-07T16:14:46.492Z,64.68
2022-09-07T16:17:35.765Z,67.12
2022-09-07T16:20:02.329Z,66.27
2022-09-07T16:25:18.292Z,67.60
2022-09-07T16:27:46.433Z,67.50
2022-09-07T16:30:15.705Z,67.50
2022-09-07T16:32:44.772Z,67.93
2022-09-07T16:35:12.756Z,68.92
2022-09-07T16:38:43.591Z,67.10
2022-09-07T16:40:28.175Z,67.59
2022-09-07T16:42:55.853Z,68.11
2022-09-07T16:48:14.926Z,67.86
2022-09-07T16:50:56.598Z,67.75
2022-09-07T16:53:34.140Z,67.61
2022-09-07T16:56:04.239Z,68.62
2022-09-07T16:58:36.785Z,68.89
2022-09-07T17:01:11.687Z,68.92
2022-09-07T17:03:42.704Z,69.99
2022-09-07T17:06:12.755Z,70.37
2022-09-07T17:08:43.931Z,70.78
2022-09-07T17:11:13.706Z,71.71
2022-09-07T17:13:44.820Z,70.62
2022-09-07T17:16:19.840Z,70.53
2022-09-07T17:21:38.459Z,72.01
2022-09-07T17:24:08.214Z,71.47
2022-09-07T17:26:36.078Z,71.52
2022-09-07T17:29:03.819Z,73.19
2022-09-07T17:34:23.046Z,71.39
2022-09-07T17:36:51.490Z,69.94
2022-09-07T17:39:19.906Z,69.62
2022-09-07T17:41:49.251Z,69.76
2022-09-07T17:44:17.098Z,69.46
2022-09-07T17:46:46.322Z,69.19
2022-09-07T17:49:16.445Z,69.58
2022-09-07T17:51:45.802Z,73.61
2022-09-07T17:54:15.882Z,74.69
2022-09-07T17:56:44.530Z,73.89
2022-09-07T18:02:02.217Z,76.88
2022-09-07T18:04:30.348Z,78.65
2022-09-07T18:06:58.073Z,77.01
2022-09-07T18:09:25.825Z,77.83
2022-09-07T18:11:53.522Z,78.12
2022-09-07T18:14:21.201Z,79.78
2022-09-07T18:16:50.338Z,82.90
2022-09-07T18:19:19.847Z,83.66
2022-09-07T18:21:48.710Z,83.33
2022-09-07T18:24:18.981Z,81.96
2022-09-07T18:26:52.185Z,81.50
2022-09-07T18:29:36.838Z,82.15
2022-09-07T18:32:09.409Z,82.62
2022-09-07T18:34:41.374Z,82.22
2022-09-07T18:37:09.354Z,83.41
2022-09-07T18:39:37.161Z,83.51
2022-09-07T18:42:05.221Z,84.59
2022-09-07T18:47:27.494Z,85.54
2022-09-07T18:49:57.839Z,86.66
2022-09-07T18:55:13.662Z,87.88
2022-09-07T18:57:43.163Z,88.52
2022-09-07T19:00:18.023Z,89.56
2022-09-07T19:02:47.545Z,90.00
2022-09-07T19:08:04.823Z,92.44
2022-09-07T19:10:35.342Z,93.27
2022-09-07T19:13:03.142Z,93.73
2022-09-07T19:15:36.822Z,93.18
2022-09-07T19:18:08.045Z,95.29
2022-09-07T19:20:37.313Z,94.57
2022-09-07T19:23:05.270Z,95.29
2022-09-07T19:25:32.953Z,94.13
2022-09-07T19:28:00.610Z,94.19
2022-09-07T19:30:28.278Z,94.66
2022-09-07T19:32:57.116Z,93.58
2022-09-07T19:35:26.433Z,94.10
2022-09-07T19:37:55.835Z,95.41
2022-09-07T19:40:23.571Z,96.88
2022-09-07T19:42:51.284Z,97.77
2022-09-07T19:45:19.009Z,97.95
2022-09-07T19:47:46.721Z,98.07
2022-09-07T19:50:14.510Z,96.10
2022-09-07T19:52:42.651Z,96.85
2022-09-07T19:55:11.863Z,96.72
2022-09-07T19:57:39.547Z,96.54
2022-09-07T20:00:08.556Z,96.75
2022-09-07T20:02:36.342Z,97.90
2022-09-07T20:05:04.148Z,97.93
2022-09-07T20:07:32.137Z,97.50
2022-09-07T20:10:00.007Z,97.12
2022-09-07T20:12:29.066Z,97.29
2022-09-07T20:14:56.736Z,96.53
2022-09-07T20:17:24.541Z,97.21
2022-09-07T20:19:52.298Z,96.29
2022-09-07T20:22:19.954Z,96.14
2022-09-07T20:24:47.645Z,96.38
2022-09-07T20:27:15.586Z,95.42
2022-09-07T20:29:44.663Z,95.35
2022-09-07T20:32:12.328Z,95.97
2022-09-07T20:34:40.378Z,95.36
2022-09-07T20:37:08.044Z,93.80
2022-09-07T20:39:39.081Z,94.01
2022-09-07T20:42:08.779Z,94.14
2022-09-07T20:44:36.569Z,93.98
2022-09-07T20:47:06.099Z,93.36
2022-09-07T20:49:33.770Z,92.53
2022-09-07T20:52:01.504Z,91.28
2022-09-07T20:54:29.188Z,90.03
2022-09-07T20:56:59.985Z,89.62
2022-09-07T20:59:29.801Z,89.53
2022-09-07T21:01:57.497Z,90.50
2022-09-07T21:04:27.436Z,89.64
2022-09-07T21:06:55.087Z,91.20
2022-09-07T21:09:23.089Z,87.82
2022-09-07T21:11:54.018Z,85.68
2022-09-07T21:14:24.150Z,84.97
2022-09-07T21:16:51.870Z,86.72
2022-09-07T21:19:19.598Z,86.00
2022-09-07T21:21:48.650Z,83.98
2022-09-07T21:24:18.719Z,84.85
2022-09-07T21:26:46.976Z,83.08
2022-09-07T21:29:18.611Z,83.11
2022-09-07T21:31:46.605Z,83.20
2022-09-07T21:34:15.086Z,81.65
2022-09-07T21:36:42.975Z,83.57
2022-09-07T21:39:14.532Z,84.14
2022-09-07T21:41:43.193Z,83.32
2022-09-07T21:44:13.737Z,82.72
2022-09-07T21:46:42.437Z,82.36
2022-09-07T21:49:10.442Z,82.63
2022-09-07T21:51:38.257Z,80.60
2022-09-07T21:54:06.085Z,79.78
2022-09-07T21:56:35.471Z,79.21
2022-09-07T21:59:04.717Z,78.75
2022-09-07T22:01:32.853Z,78.94
2022-09-07T22:04:06.814Z,78.75
2022-09-07T22:06:35.106Z,78.62
2022-09-07T22:09:04.940Z,80.49
2022-09-07T22:11:33.513Z,78.53
2022-09-07T22:14:04.554Z,79.53
2022-09-07T22:16:33.789Z,80.85
2022-09-07T22:19:01.615Z,81.95
2022-09-07T22:21:30.801Z,80.06
2022-09-07T22:24:00.144Z,79.55
2022-09-07T22:26:30.062Z,79.40
2022-09-07T22:28:59.353Z,79.10
2022-09-07T22:31:29.931Z,79.56
2022-09-07T22:33:59.174Z,80.40
2022-09-07T22:36:28.937Z,80.21
2022-09-07T22:38:58.175Z,81.38
2022-09-07T22:41:27.907Z,80.11
2022-09-07T22:43:56.371Z,78.98
2022-09-07T22:46:26.370Z,79.88
2022-09-07T22:48:56.423Z,81.01
2022-09-07T22:51:25.276Z,80.90
2022-09-07T22:53:53.995Z,80.51
2022-09-07T22:56:24.116Z,80.50
2022-09-07T22:58:53.422Z,80.22
2022-09-07T23:01:21.873Z,79.56
2022-09-07T23:03:50.005Z,79.36
2022-09-07T23:06:24.534Z,80.79
2022-09-07T23:08:54.777Z,80.74
2022-09-07T23:11:23.958Z,79.99
2022-09-07T23:13:53.005Z,80.61
2022-09-07T23:16:21.263Z,80.20
2022-09-07T23:18:50.153Z,80.03
2022-09-07T23:21:18.002Z,80.65
2022-09-07T23:23:50.185Z,80.48
2022-09-07T23:26:18.186Z,81.25
2022-09-07T23:28:45.815Z,81.56
2022-09-07T23:31:13.738Z,81.48
2022-09-07T23:33:41.392Z,81.29
2022-09-07T23:36:09.144Z,80.95
2022-09-07T23:38:37.324Z,79.87
2022-09-07T23:41:06.554Z,80.06
2022-09-07T23:43:34.361Z,80.83
2022-09-07T23:46:02.557Z,81.11
2022-09-07T23:48:30.275Z,80.95
2022-09-07T23:50:58.224Z,81.42
2022-09-07T23:53:26.767Z,79.85
2022-09-07T23:55:54.567Z,80.64
2022-09-07T23:58:24.004Z,80.35
